To NAV CANADA Home Page Login to a new session Search on AWWS site Disclaimer Vers la page française équivalente Tips FAQ What's new on the site To the Forecasts and Observations / NOTAM section To "File a Flight Plan" website Publications and other links Update of the User's profile FIC Telephone Numbers My Weather Data Folder Route Weather Data Regional Weather Data Local Weather Data To the Forecasts and Observations / NOTAM section
Request Generated 01/21/2021 at 01:22:57 UTC . Weather information available at that time is displayed.


Go to a specific product

Save this request - Inactive

METAR/TAF

OTTAWA/MACDONALD-CARTIER INTL/ON    

METAR CYOW 210100Z 17004KT 15SM SCT160 M16/M19 A3000 RMK AC3 SLP171=
METAR CYOW 210000Z 32004KT 15SM BKN250 M15/M19 A3002 RMK CC6 SLP178=
METAR CYOW 202300Z 29009KT 15SM FEW100 M13/M18 A3005 RMK AC1 AC TR SLP186=

TAF CYOW 202341Z 2100/2124 31007KT P6SM SCT120
FM210300 10006KT P6SM SCT020 BKN100 TEMPO 2103/2109 BKN020 OVC100
FM210900 11008KT 5SM -SN OVC015
FM211100 10009KT 11/2SM -SN BKN008 OVC012
FM211400 12010KT 21/2SM -SN BKN006 OVC010
FM212100 13007KT 11/2SM -SN SCT008 OVC010
RMK NXT FCST BY 210300Z=

OTTAWA/GATINEAU/QC    

METAR CYND 210100Z 24003KT 220V280 15SM BKN200 M15/M18 A3002 RMK CI5 SLP174=
METAR CYND 210000Z 30007KT 15SM BKN230 M14/M18 A3004 RMK CI5 SLP180=
METAR CYND 202300Z 27009KT 15SM FEW025 FEW220 M14/M18 A3006 RMK SC1CI1 SC TR SLP185=

TAF CYND 202341Z 2100/2102 27009KT P6SM FEW025
BECMG 2100/2102 VRB03KT BKN020 BKN120
RMK NXT FCST WILL BE ISSUED AT 211345Z=


GRAPHICAL FA CLOUDS & WEATHER FORECASTS
To the Product Selector
Graphical FA gfacn33      

GRAPHICAL FA ICING, TURBULENCE & FREEZING LEVEL FORECASTS
To the Product Selector
Graphical FA gfacn33      

Your time UTC time
Weather data provided by Environment Canada and NAV CANADA